sensor_id;sensor_type;location;lat;lon;timestamp;pressure;altitude;pressure_sealevel;temperature;humidity
58373;BME280;44177;43.356;27.672;2022-07-23T00:00:10;98159.72;;;22.32;46.39
58373;BME280;44177;43.356;27.672;2022-07-23T00:02:36;98177.78;;;22.44;46.60
58373;BME280;44177;43.356;27.672;2022-07-23T00:05:02;98185.66;;;22.46;46.75
58373;BME280;44177;43.356;27.672;2022-07-23T00:07:28;98168.03;;;22.32;46.99
58373;BME280;44177;43.356;27.672;2022-07-23T00:09:53;98156.84;;;22.16;46.76
58373;BME280;44177;43.356;27.672;2022-07-23T00:12:20;98151.28;;;22.16;46.87
58373;BME280;44177;43.356;27.672;2022-07-23T00:14:46;98154.56;;;22.11;46.98
58373;BME280;44177;43.356;27.672;2022-07-23T00:17:11;98158.56;;;22.09;47.24
58373;BME280;44177;43.356;27.672;2022-07-23T00:19:36;98149.28;;;21.96;47.27
58373;BME280;44177;43.356;27.672;2022-07-23T00:22:02;98164.81;;;21.93;47.15
58373;BME280;44177;43.356;27.672;2022-07-23T00:24:27;98163.50;;;21.98;47.63
58373;BME280;44177;43.356;27.672;2022-07-23T00:26:53;98151.03;;;21.86;47.71
58373;BME280;44177;43.356;27.672;2022-07-23T00:29:18;98180.78;;;22.09;47.80
58373;BME280;44177;43.356;27.672;2022-07-23T00:31:44;98136.88;;;21.81;47.87
58373;BME280;44177;43.356;27.672;2022-07-23T00:34:10;98183.31;;;22.00;48.07
58373;BME280;44177;43.356;27.672;2022-07-23T00:36:36;98159.34;;;21.86;48.01
58373;BME280;44177;43.356;27.672;2022-07-23T00:39:02;98150.50;;;21.71;48.12
58373;BME280;44177;43.356;27.672;2022-07-23T00:41:27;98182.75;;;21.89;47.80
58373;BME280;44177;43.356;27.672;2022-07-23T00:43:53;98162.31;;;21.75;47.96
58373;BME280;44177;43.356;27.672;2022-07-23T00:46:22;98158.72;;;21.79;48.38
58373;BME280;44177;43.356;27.672;2022-07-23T00:48:48;98160.72;;;21.78;48.14
58373;BME280;44177;43.356;27.672;2022-07-23T00:51:15;98187.44;;;21.92;48.10
58373;BME280;44177;43.356;27.672;2022-07-23T00:53:43;98183.06;;;21.91;48.18
58373;BME280;44177;43.356;27.672;2022-07-23T00:56:11;98165.97;;;21.72;48.38
58373;BME280;44177;43.356;27.672;2022-07-23T00:58:38;98157.63;;;21.72;48.30
58373;BME280;44177;43.356;27.672;2022-07-23T01:01:05;98156.25;;;21.60;48.65
58373;BME280;44177;43.356;27.672;2022-07-23T01:03:30;98157.03;;;21.61;48.57
58373;BME280;44177;43.356;27.672;2022-07-23T01:05:56;98157.03;;;21.61;48.38
58373;BME280;44177;43.356;27.672;2022-07-23T01:08:23;98161.44;;;21.58;48.83
58373;BME280;44177;43.356;27.672;2022-07-23T01:10:48;98146.13;;;21.46;48.93
58373;BME280;44177;43.356;27.672;2022-07-23T01:13:15;98127.38;;;21.30;48.93
58373;BME280;44177;43.356;27.672;2022-07-23T01:15:41;98163.59;;;21.43;48.95
58373;BME280;44177;43.356;27.672;2022-07-23T01:18:07;98171.81;;;21.51;49.12
58373;BME280;44177;43.356;27.672;2022-07-23T01:20:33;98173.88;;;21.46;48.91
58373;BME280;44177;43.356;27.672;2022-07-23T01:22:59;98169.16;;;21.43;48.86
58373;BME280;44177;43.356;27.672;2022-07-23T01:25:25;98168.75;;;21.45;49.00
58373;BME280;44177;43.356;27.672;2022-07-23T01:27:52;98144.09;;;21.23;49.12
58373;BME280;44177;43.356;27.672;2022-07-23T01:30:17;98145.72;;;21.21;48.98
58373;BME280;44177;43.356;27.672;2022-07-23T01:32:43;98150.88;;;21.22;49.05
58373;BME280;44177;43.356;27.672;2022-07-23T01:35:09;98153.59;;;21.26;49.21
58373;BME280;44177;43.356;27.672;2022-07-23T01:37:37;98155.25;;;21.20;49.64
58373;BME280;44177;43.356;27.672;2022-07-23T01:40:03;98153.75;;;21.15;49.69
58373;BME280;44177;43.356;27.672;2022-07-23T01:42:29;98164.81;;;21.19;50.00
58373;BME280;44177;43.356;27.672;2022-07-23T01:44:55;98138.22;;;20.94;50.12
58373;BME280;44177;43.356;27.672;2022-07-23T01:47:20;98118.59;;;20.81;50.07
58373;BME280;44177;43.356;27.672;2022-07-23T01:49:46;98122.50;;;20.83;50.41
58373;BME280;44177;43.356;27.672;2022-07-23T01:52:13;98148.50;;;20.93;50.61
58373;BME280;44177;43.356;27.672;2022-07-23T01:54:39;98139.13;;;20.83;50.80
58373;BME280;44177;43.356;27.672;2022-07-23T01:57:05;98135.22;;;20.81;50.83
58373;BME280;44177;43.356;27.672;2022-07-23T01:59:31;98158.88;;;20.89;50.88
58373;BME280;44177;43.356;27.672;2022-07-23T02:01:57;98162.78;;;20.92;51.17
58373;BME280;44177;43.356;27.672;2022-07-23T02:04:24;98160.06;;;20.88;51.16
58373;BME280;44177;43.356;27.672;2022-07-23T02:06:50;98138.94;;;20.67;51.21
58373;BME280;44177;43.356;27.672;2022-07-23T02:09:16;98147.25;;;20.67;51.16
58373;BME280;44177;43.356;27.672;2022-07-23T02:11:43;98122.22;;;20.43;51.28
58373;BME280;44177;43.356;27.672;2022-07-23T02:14:08;98158.84;;;20.58;51.57
58373;BME280;44177;43.356;27.672;2022-07-23T02:16:34;98156.84;;;20.59;51.79
58373;BME280;44177;43.356;27.672;2022-07-23T02:19:00;98177.00;;;20.63;52.00
58373;BME280;44177;43.356;27.672;2022-07-23T02:21:26;98150.38;;;20.38;51.88
58373;BME280;44177;43.356;27.672;2022-07-23T02:23:51;98150.38;;;20.38;52.08
58373;BME280;44177;43.356;27.672;2022-07-23T02:26:17;98163.72;;;20.47;52.16
58373;BME280;44177;43.356;27.672;2022-07-23T02:28:42;98141.75;;;20.32;52.18
58373;BME280;44177;43.356;27.672;2022-07-23T02:31:08;98143.75;;;20.28;52.37
58373;BME280;44177;43.356;27.672;2022-07-23T02:33:33;98157.16;;;20.33;52.34
58373;BME280;44177;43.356;27.672;2022-07-23T02:35:59;98158.81;;;20.27;52.42
58373;BME280;44177;43.356;27.672;2022-07-23T02:38:25;98182.38;;;20.43;52.80
58373;BME280;44177;43.356;27.672;2022-07-23T02:40:50;98171.81;;;20.30;52.61
58373;BME280;44177;43.356;27.672;2022-07-23T02:43:16;98140.03;;;20.08;52.68
58373;BME280;44177;43.356;27.672;2022-07-23T02:45:41;98182.44;;;20.39;52.86
58373;BME280;44177;43.356;27.672;2022-07-23T02:48:07;98148.63;;;20.17;53.23
58373;BME280;44177;43.356;27.672;2022-07-23T02:50:32;98161.63;;;20.24;53.34
58373;BME280;44177;43.356;27.672;2022-07-23T02:52:58;98176.69;;;20.23;53.46
58373;BME280;44177;43.356;27.672;2022-07-23T02:55:24;98156.59;;;20.11;53.44
58373;BME280;44177;43.356;27.672;2022-07-23T02:57:49;98188.88;;;20.29;53.53
58373;BME280;44177;43.356;27.672;2022-07-23T03:00:15;98172.00;;;20.16;53.52
58373;BME280;44177;43.356;27.672;2022-07-23T03:02:41;98155.09;;;20.03;53.59
58373;BME280;44177;43.356;27.672;2022-07-23T03:05:06;98164.56;;;20.06;53.67
58373;BME280;44177;43.356;27.672;2022-07-23T03:07:32;98188.94;;;20.22;53.41
58373;BME280;44177;43.356;27.672;2022-07-23T03:09:57;98161.88;;;19.98;53.20
58373;BME280;44177;43.356;27.672;2022-07-23T03:12:23;98173.63;;;20.10;53.60
58373;BME280;44177;43.356;27.672;2022-07-23T03:14:49;98184.59;;;20.20;53.28
58373;BME280;44177;43.356;27.672;2022-07-23T03:17:14;98186.19;;;20.22;53.47
58373;BME280;44177;43.356;27.672;2022-07-23T03:19:39;98178.28;;;20.20;53.39
58373;BME280;44177;43.356;27.672;2022-07-23T03:22:05;98205.44;;;20.32;52.79
58373;BME280;44177;43.356;27.672;2022-07-23T03:24:31;98205.31;;;20.43;53.43
58373;BME280;44177;43.356;27.672;2022-07-23T03:27:15;98185.69;;;20.30;52.62
58373;BME280;44177;43.356;27.672;2022-07-23T03:29:40;98187.16;;;20.39;53.39
58373;BME280;44177;43.356;27.672;2022-07-23T03:32:06;98184.75;;;20.44;53.12
58373;BME280;44177;43.356;27.672;2022-07-23T03:34:31;98194.50;;;20.56;53.03
58373;BME280;44177;43.356;27.672;2022-07-23T03:36:57;98182.66;;;20.52;52.65
58373;BME280;44177;43.356;27.672;2022-07-23T03:39:22;98183.00;;;20.58;53.35
58373;BME280;44177;43.356;27.672;2022-07-23T03:41:48;98208.44;;;20.83;53.16
58373;BME280;44177;43.356;27.672;2022-07-23T03:44:13;98166.31;;;20.61;53.27
58373;BME280;44177;43.356;27.672;2022-07-23T03:46:39;98207.88;;;20.96;53.44
58373;BME280;44177;43.356;27.672;2022-07-23T03:49:04;98202.34;;;20.96;53.74
58373;BME280;44177;43.356;27.672;2022-07-23T03:51:30;98171.63;;;20.83;53.46
58373;BME280;44177;43.356;27.672;2022-07-23T03:53:55;98174.59;;;20.96;53.41
58373;BME280;44177;43.356;27.672;2022-07-23T03:56:21;98209.06;;;21.26;53.56
58373;BME280;44177;43.356;27.672;2022-07-23T03:58:47;98202.31;;;21.27;53.43
58373;BME280;44177;43.356;27.672;2022-07-23T04:01:13;98210.38;;;21.45;53.18
58373;BME280;44177;43.356;27.672;2022-07-23T04:03:39;98186.28;;;21.38;52.77
58373;BME280;44177;43.356;27.672;2022-07-23T04:06:05;98198.72;;;21.57;52.95
58373;BME280;44177;43.356;27.672;2022-07-23T04:08:30;98196.50;;;21.72;53.35
58373;BME280;44177;43.356;27.672;2022-07-23T04:10:56;98201.00;;;21.86;53.45
58373;BME280;44177;43.356;27.672;2022-07-23T04:13:23;98209.31;;;22.10;53.37
58373;BME280;44177;43.356;27.672;2022-07-23T04:15:49;98187.97;;;22.07;52.70
58373;BME280;44177;43.356;27.672;2022-07-23T04:18:16;98219.09;;;22.42;52.87
58373;BME280;44177;43.356;27.672;2022-07-23T04:20:47;98214.13;;;22.53;52.83
58373;BME280;44177;43.356;27.672;2022-07-23T04:23:13;98209.06;;;22.68;52.93
58373;BME280;44177;43.356;27.672;2022-07-23T04:25:38;98200.16;;;22.77;52.52
58373;BME280;44177;43.356;27.672;2022-07-23T04:28:04;98186.00;;;22.88;52.02
58373;BME280;44177;43.356;27.672;2022-07-23T04:30:29;98195.97;;;23.06;51.38
58373;BME280;44177;43.356;27.672;2022-07-23T04:32:55;98197.25;;;23.21;51.98
58373;BME280;44177;43.356;27.672;2022-07-23T04:35:20;98207.53;;;23.41;53.20
58373;BME280;44177;43.356;27.672;2022-07-23T04:37:46;98210.94;;;23.65;53.30
58373;BME280;44177;43.356;27.672;2022-07-23T04:40:12;98202.06;;;23.70;53.75
58373;BME280;44177;43.356;27.672;2022-07-23T04:42:38;98205.63;;;23.87;52.69
58373;BME280;44177;43.356;27.672;2022-07-23T04:45:04;98208.41;;;24.04;52.52
58373;BME280;44177;43.356;27.672;2022-07-23T04:47:30;98202.56;;;24.15;51.85
58373;BME280;44177;43.356;27.672;2022-07-23T04:49:56;98196.81;;;24.22;52.52
58373;BME280;44177;43.356;27.672;2022-07-23T04:52:21;98205.78;;;24.42;52.92
58373;BME280;44177;43.356;27.672;2022-07-23T04:54:47;98186.53;;;24.48;53.94
58373;BME280;44177;43.356;27.672;2022-07-23T04:57:13;98200.22;;;24.72;54.37
58373;BME280;44177;43.356;27.672;2022-07-23T04:59:38;98219.69;;;24.88;54.47
58373;BME280;44177;43.356;27.672;2022-07-23T05:02:04;98204.31;;;24.97;53.71
58373;BME280;44177;43.356;27.672;2022-07-23T05:04:29;98210.22;;;25.12;54.43
58373;BME280;44177;43.356;27.672;2022-07-23T05:06:56;98205.88;;;25.23;54.37
58373;BME280;44177;43.356;27.672;2022-07-23T05:09:22;98231.91;;;25.59;53.62
58373;BME280;44177;43.356;27.672;2022-07-23T05:11:48;98208.81;;;25.59;53.13
58373;BME280;44177;43.356;27.672;2022-07-23T05:14:13;98203.22;;;25.59;53.38
58373;BME280;44177;43.356;27.672;2022-07-23T05:16:39;98203.19;;;25.84;52.96
58373;BME280;44177;43.356;27.672;2022-07-23T05:19:04;98225.81;;;26.12;52.71
58373;BME280;44177;43.356;27.672;2022-07-23T05:21:30;98212.91;;;26.28;52.30
58373;BME280;44177;43.356;27.672;2022-07-23T05:23:55;98216.13;;;26.39;50.75
58373;BME280;44177;43.356;27.672;2022-07-23T05:26:21;98220.59;;;26.59;49.17
58373;BME280;44177;43.356;27.672;2022-07-23T05:28:46;98206.09;;;26.73;49.15
58373;BME280;44177;43.356;27.672;2022-07-23T05:31:11;98216.06;;;26.97;45.42
58373;BME280;44177;43.356;27.672;2022-07-23T05:33:37;98209.78;;;27.15;46.80
58373;BME280;44177;43.356;27.672;2022-07-23T05:36:03;98208.72;;;27.21;43.90
58373;BME280;44177;43.356;27.672;2022-07-23T05:38:29;98218.03;;;27.50;44.85
58373;BME280;44177;43.356;27.672;2022-07-23T05:40:55;98208.53;;;27.47;42.58
58373;BME280;44177;43.356;27.672;2022-07-23T05:43:21;98210.31;;;27.72;41.79
58373;BME280;44177;43.356;27.672;2022-07-23T05:45:46;98206.28;;;27.73;39.48
58373;BME280;44177;43.356;27.672;2022-07-23T05:48:12;98218.72;;;27.72;36.71
58373;BME280;44177;43.356;27.672;2022-07-23T05:50:37;98198.03;;;27.79;37.28
58373;BME280;44177;43.356;27.672;2022-07-23T05:53:03;98194.00;;;27.89;37.72
58373;BME280;44177;43.356;27.672;2022-07-23T05:55:30;98219.44;;;28.23;37.02
58373;BME280;44177;43.356;27.672;2022-07-23T05:58:04;98211.03;;;28.23;37.72
58373;BME280;44177;43.356;27.672;2022-07-23T06:00:30;98210.72;;;28.40;36.59
58373;BME280;44177;43.356;27.672;2022-07-23T06:02:55;98217.09;;;28.68;35.26
58373;BME280;44177;43.356;27.672;2022-07-23T06:05:22;98214.28;;;28.68;36.52
58373;BME280;44177;43.356;27.672;2022-07-23T06:07:47;98213.00;;;28.97;35.89
58373;BME280;44177;43.356;27.672;2022-07-23T06:10:13;98196.50;;;29.33;36.29
58373;BME280;44177;43.356;27.672;2022-07-23T06:12:39;98219.38;;;29.83;33.49
58373;BME280;44177;43.356;27.672;2022-07-23T06:15:06;98192.59;;;29.97;34.55
58373;BME280;44177;43.356;27.672;2022-07-23T06:17:32;98218.31;;;30.44;33.13
58373;BME280;44177;43.356;27.672;2022-07-23T06:19:58;98203.16;;;30.66;32.58
58373;BME280;44177;43.356;27.672;2022-07-23T06:22:24;98200.13;;;30.84;31.97
58373;BME280;44177;43.356;27.672;2022-07-23T06:24:49;98221.91;;;31.29;31.85
58373;BME280;44177;43.356;27.672;2022-07-23T06:27:16;98237.59;;;31.50;31.44
58373;BME280;44177;43.356;27.672;2022-07-23T06:29:41;98215.59;;;31.55;31.67
58373;BME280;44177;43.356;27.672;2022-07-23T06:32:10;98217.66;;;31.90;31.83
58373;BME280;44177;43.356;27.672;2022-07-23T06:34:36;98224.03;;;32.05;29.72
58373;BME280;44177;43.356;27.672;2022-07-23T06:37:01;98155.59;;;31.69;30.41
58373;BME280;44177;43.356;27.672;2022-07-23T06:39:28;98196.44;;;31.94;28.64
58373;BME280;44177;43.356;27.672;2022-07-23T06:41:54;98217.44;;;32.14;29.62
58373;BME280;44177;43.356;27.672;2022-07-23T06:44:19;98202.56;;;32.34;28.66
58373;BME280;44177;43.356;27.672;2022-07-23T06:46:45;98175.81;;;32.24;29.65
58373;BME280;44177;43.356;27.672;2022-07-23T06:49:10;98154.41;;;32.17;29.25
58373;BME280;44177;43.356;27.672;2022-07-23T06:51:37;98170.63;;;32.43;26.85
58373;BME280;44177;43.356;27.672;2022-07-23T06:54:05;98137.75;;;32.19;27.97
58373;BME280;44177;43.356;27.672;2022-07-23T06:56:31;98229.41;;;32.97;27.19
58373;BME280;44177;43.356;27.672;2022-07-23T06:58:56;98193.94;;;32.90;27.00
58373;BME280;44177;43.356;27.672;2022-07-23T07:01:22;98178.94;;;33.11;26.06
58373;BME280;44177;43.356;27.672;2022-07-23T07:03:48;98159.00;;;33.26;26.51
58373;BME280;44177;43.356;27.672;2022-07-23T07:06:14;98176.47;;;33.62;24.76
58373;BME280;44177;43.356;27.672;2022-07-23T07:08:40;98151.69;;;33.45;24.90
58373;BME280;44177;43.356;27.672;2022-07-23T07:11:08;98207.38;;;33.77;25.18
58373;BME280;44177;43.356;27.672;2022-07-23T07:13:34;98213.25;;;33.67;25.02
58373;BME280;44177;43.356;27.672;2022-07-23T07:15:59;98177.84;;;33.34;24.52
58373;BME280;44177;43.356;27.672;2022-07-23T07:18:25;98194.59;;;33.44;24.00
58373;BME280;44177;43.356;27.672;2022-07-23T07:20:50;98203.06;;;33.38;25.06
58373;BME280;44177;43.356;27.672;2022-07-23T07:23:17;98182.75;;;33.40;24.59
58373;BME280;44177;43.356;27.672;2022-07-23T07:25:43;98210.63;;;33.58;25.79
58373;BME280;44177;43.356;27.672;2022-07-23T07:28:09;98162.66;;;33.32;24.06
58373;BME280;44177;43.356;27.672;2022-07-23T07:30:34;98206.84;;;33.73;24.62
58373;BME280;44177;43.356;27.672;2022-07-23T07:33:00;98211.38;;;33.96;26.05
58373;BME280;44177;43.356;27.672;2022-07-23T07:35:26;98188.50;;;34.00;25.45
58373;BME280;44177;43.356;27.672;2022-07-23T07:37:51;98198.03;;;34.03;24.48
58373;BME280;44177;43.356;27.672;2022-07-23T07:40:17;98211.22;;;34.23;24.17
58373;BME280;44177;43.356;27.672;2022-07-23T07:42:49;98179.00;;;34.09;24.43
58373;BME280;44177;43.356;27.672;2022-07-23T07:45:15;98199.88;;;34.17;25.66
58373;BME280;44177;43.356;27.672;2022-07-23T07:47:41;98211.31;;;34.45;23.94
58373;BME280;44177;43.356;27.672;2022-07-23T07:50:08;98223.94;;;34.61;26.28
58373;BME280;44177;43.356;27.672;2022-07-23T07:52:34;98198.16;;;34.42;23.70
58373;BME280;44177;43.356;27.672;2022-07-23T07:55:08;98175.69;;;34.22;24.01
58373;BME280;44177;43.356;27.672;2022-07-23T07:57:37;98210.56;;;34.56;24.81
58373;BME280;44177;43.356;27.672;2022-07-23T08:00:07;98197.22;;;34.74;24.44
58373;BME280;44177;43.356;27.672;2022-07-23T08:02:41;98173.97;;;34.47;22.49
58373;BME280;44177;43.356;27.672;2022-07-23T08:05:06;98210.84;;;34.64;23.18
58373;BME280;44177;43.356;27.672;2022-07-23T08:07:35;98210.28;;;34.54;24.52
58373;BME280;44177;43.356;27.672;2022-07-23T08:10:02;98213.66;;;34.58;24.35
58373;BME280;44177;43.356;27.672;2022-07-23T08:12:37;98190.50;;;34.77;23.41
58373;BME280;44177;43.356;27.672;2022-07-23T08:15:03;98190.72;;;34.45;23.26
58373;BME280;44177;43.356;27.672;2022-07-23T08:17:29;98197.44;;;34.47;23.40
58373;BME280;44177;43.356;27.672;2022-07-23T08:19:54;98177.53;;;34.30;23.51
58373;BME280;44177;43.356;27.672;2022-07-23T08:22:23;98152.84;;;34.37;23.88
58373;BME280;44177;43.356;27.672;2022-07-23T08:24:48;98186.94;;;34.93;23.79
58373;BME280;44177;43.356;27.672;2022-07-23T08:27:14;98156.03;;;34.95;23.27
58373;BME280;44177;43.356;27.672;2022-07-23T08:29:39;98158.59;;;34.93;23.83
58373;BME280;44177;43.356;27.672;2022-07-23T08:32:05;98208.81;;;35.33;22.75
58373;BME280;44177;43.356;27.672;2022-07-23T08:34:30;98187.69;;;35.34;23.69
58373;BME280;44177;43.356;27.672;2022-07-23T08:36:56;98156.50;;;35.51;23.24
58373;BME280;44177;43.356;27.672;2022-07-23T08:39:21;98149.25;;;35.55;21.89
58373;BME280;44177;43.356;27.672;2022-07-23T08:41:48;98148.22;;;35.58;23.18
58373;BME280;44177;43.356;27.672;2022-07-23T08:44:16;98169.03;;;35.78;23.10
58373;BME280;44177;43.356;27.672;2022-07-23T08:46:43;98163.88;;;35.77;24.05
58373;BME280;44177;43.356;27.672;2022-07-23T08:49:11;98172.38;;;35.94;21.69
58373;BME280;44177;43.356;27.672;2022-07-23T08:51:40;98187.19;;;36.23;22.75
58373;BME280;44177;43.356;27.672;2022-07-23T08:54:07;98149.09;;;36.01;21.89
58373;BME280;44177;43.356;27.672;2022-07-23T08:56:32;98206.19;;;36.39;21.48
58373;BME280;44177;43.356;27.672;2022-07-23T08:58:58;98137.53;;;35.93;22.68
58373;BME280;44177;43.356;27.672;2022-07-23T09:01:24;98181.34;;;36.03;22.01
58373;BME280;44177;43.356;27.672;2022-07-23T09:03:49;98174.28;;;36.22;23.65
58373;BME280;44177;43.356;27.672;2022-07-23T09:06:15;98208.81;;;36.79;22.94
58373;BME280;44177;43.356;27.672;2022-07-23T09:08:42;98224.38;;;37.08;21.59
58373;BME280;44177;43.356;27.672;2022-07-23T09:11:10;98226.00;;;36.98;22.17
58373;BME280;44177;43.356;27.672;2022-07-23T09:13:42;98213.88;;;36.97;21.01
58373;BME280;44177;43.356;27.672;2022-07-23T09:16:19;98206.44;;;36.89;21.98
58373;BME280;44177;43.356;27.672;2022-07-23T09:21:25;98212.19;;;36.77;22.68
58373;BME280;44177;43.356;27.672;2022-07-23T09:24:05;98200.50;;;36.87;21.61
58373;BME280;44177;43.356;27.672;2022-07-23T09:29:06;98184.78;;;37.16;21.83
58373;BME280;44177;43.356;27.672;2022-07-23T09:34:22;98179.75;;;37.28;20.85
58373;BME280;44177;43.356;27.672;2022-07-23T09:36:50;98212.91;;;37.20;20.95
58373;BME280;44177;43.356;27.672;2022-07-23T09:39:31;98199.63;;;37.03;20.66
58373;BME280;44177;43.356;27.672;2022-07-23T09:42:11;98154.31;;;36.80;21.14
58373;BME280;44177;43.356;27.672;2022-07-23T09:44:41;98197.25;;;37.38;20.98
58373;BME280;44177;43.356;27.672;2022-07-23T09:47:08;98171.72;;;37.26;21.07
58373;BME280;44177;43.356;27.672;2022-07-23T09:49:34;98202.41;;;37.39;21.50
58373;BME280;44177;43.356;27.672;2022-07-23T09:52:00;98189.13;;;36.92;20.49
58373;BME280;44177;43.356;27.672;2022-07-23T09:54:33;98175.66;;;36.87;22.39
58373;BME280;44177;43.356;27.672;2022-07-23T09:57:03;98180.00;;;37.00;21.79
58373;BME280;44177;43.356;27.672;2022-07-23T09:59:31;98163.72;;;37.00;21.62
58373;BME280;44177;43.356;27.672;2022-07-23T10:01:59;98187.38;;;37.14;21.76
58373;BME280;44177;43.356;27.672;2022-07-23T10:04:29;98171.94;;;37.34;21.36
58373;BME280;44177;43.356;27.672;2022-07-23T10:06:56;98179.66;;;37.64;19.61
58373;BME280;44177;43.356;27.672;2022-07-23T10:09:28;98181.84;;;37.77;20.12
58373;BME280;44177;43.356;27.672;2022-07-23T10:11:57;98176.84;;;37.83;20.62
58373;BME280;44177;43.356;27.672;2022-07-23T10:14:27;98158.66;;;37.67;19.92
58373;BME280;44177;43.356;27.672;2022-07-23T10:16:55;98171.19;;;38.02;21.91
58373;BME280;44177;43.356;27.672;2022-07-23T10:19:21;98161.19;;;37.96;20.78
58373;BME280;44177;43.356;27.672;2022-07-23T10:21:50;98173.03;;;38.19;21.05
58373;BME280;44177;43.356;27.672;2022-07-23T10:30:06;98150.94;;;38.25;20.15
58373;BME280;44177;43.356;27.672;2022-07-23T10:37:45;98142.06;;;37.71;21.71
58373;BME280;44177;43.356;27.672;2022-07-23T10:40:15;98135.59;;;37.71;21.34
58373;BME280;44177;43.356;27.672;2022-07-23T10:42:46;98134.25;;;37.28;20.93
58373;BME280;44177;43.356;27.672;2022-07-23T10:45:25;98143.00;;;37.30;19.96
58373;BME280;44177;43.356;27.672;2022-07-23T10:47:51;98143.66;;;37.17;20.23
58373;BME280;44177;43.356;27.672;2022-07-23T10:50:25;98149.88;;;37.16;21.88
58373;BME280;44177;43.356;27.672;2022-07-23T10:57:57;98138.41;;;37.27;19.63
58373;BME280;44177;43.356;27.672;2022-07-23T11:00:25;98088.03;;;36.97;20.30
58373;BME280;44177;43.356;27.672;2022-07-23T11:02:53;98153.84;;;37.32;20.14
58373;BME280;44177;43.356;27.672;2022-07-23T11:05:21;98124.78;;;37.20;21.25
58373;BME280;44177;43.356;27.672;2022-07-23T11:31:56;98069.91;;;37.50;18.85
58373;BME280;44177;43.356;27.672;2022-07-23T11:37:06;98113.75;;;37.60;20.04
58373;BME280;44177;43.356;27.672;2022-07-23T11:39:32;98097.81;;;37.51;21.54
58373;BME280;44177;43.356;27.672;2022-07-23T11:41:59;98110.81;;;37.66;18.51
58373;BME280;44177;43.356;27.672;2022-07-23T11:44:34;98106.03;;;37.55;18.54
58373;BME280;44177;43.356;27.672;2022-07-23T11:47:08;98134.63;;;37.43;23.14
58373;BME280;44177;43.356;27.672;2022-07-23T11:49:34;98105.91;;;37.17;24.02
58373;BME280;44177;43.356;27.672;2022-07-23T11:52:10;98110.72;;;37.27;24.88
58373;BME280;44177;43.356;27.672;2022-07-23T11:54:48;98089.81;;;35.92;24.32
58373;BME280;44177;43.356;27.672;2022-07-23T11:57:14;98105.25;;;36.02;25.18
58373;BME280;44177;43.356;27.672;2022-07-23T11:59:40;98093.63;;;35.30;25.37
58373;BME280;44177;43.356;27.672;2022-07-23T12:02:09;98073.31;;;35.14;26.31
58373;BME280;44177;43.356;27.672;2022-07-23T12:04:38;98099.28;;;35.30;26.83
58373;BME280;44177;43.356;27.672;2022-07-23T12:07:27;98112.69;;;35.46;26.21
58373;BME280;44177;43.356;27.672;2022-07-23T12:09:59;98102.97;;;34.45;27.23
58373;BME280;44177;43.356;27.672;2022-07-23T12:12:26;98079.47;;;34.27;28.10
58373;BME280;44177;43.356;27.672;2022-07-23T12:14:58;98111.19;;;34.54;27.17
58373;BME280;44177;43.356;27.672;2022-07-23T12:17:45;98048.09;;;34.25;27.33
58373;BME280;44177;43.356;27.672;2022-07-23T12:20:23;98064.53;;;34.27;27.10
58373;BME280;44177;43.356;27.672;2022-07-23T12:22:52;98099.03;;;34.25;27.45
58373;BME280;44177;43.356;27.672;2022-07-23T12:25:20;98094.13;;;34.09;28.27
58373;BME280;44177;43.356;27.672;2022-07-23T12:28:11;98086.19;;;33.52;28.07
58373;BME280;44177;43.356;27.672;2022-07-23T12:33:12;98092.81;;;33.44;28.46
58373;BME280;44177;43.356;27.672;2022-07-23T12:35:41;98115.78;;;33.57;28.18
58373;BME280;44177;43.356;27.672;2022-07-23T12:38:12;98092.50;;;33.85;28.67
58373;BME280;44177;43.356;27.672;2022-07-23T12:40:45;98083.44;;;33.69;27.76
58373;BME280;44177;43.356;27.672;2022-07-23T12:45:49;98081.47;;;33.87;27.99
58373;BME280;44177;43.356;27.672;2022-07-23T12:48:52;98108.72;;;33.96;28.69
58373;BME280;44177;43.356;27.672;2022-07-23T12:51:28;98091.16;;;33.80;28.42
58373;BME280;44177;43.356;27.672;2022-07-23T12:54:09;98096.00;;;33.68;28.52
58373;BME280;44177;43.356;27.672;2022-07-23T12:56:36;98095.56;;;33.81;28.88
58373;BME280;44177;43.356;27.672;2022-07-23T12:59:08;98085.84;;;33.33;28.73
58373;BME280;44177;43.356;27.672;2022-07-23T13:01:42;98100.75;;;33.34;28.57
58373;BME280;44177;43.356;27.672;2022-07-23T13:04:19;98093.25;;;33.31;29.04
58373;BME280;44177;43.356;27.672;2022-07-23T13:06:52;98068.00;;;33.16;28.48
58373;BME280;44177;43.356;27.672;2022-07-23T13:09:21;98092.91;;;33.66;28.86
58373;BME280;44177;43.356;27.672;2022-07-23T13:11:48;98087.00;;;33.64;28.22
58373;BME280;44177;43.356;27.672;2022-07-23T13:14:15;98089.38;;;33.83;28.67
58373;BME280;44177;43.356;27.672;2022-07-23T13:16:41;98084.50;;;33.83;27.64
58373;BME280;44177;43.356;27.672;2022-07-23T13:19:07;98081.38;;;33.76;27.91
58373;BME280;44177;43.356;27.672;2022-07-23T13:21:33;98078.97;;;33.46;28.55
58373;BME280;44177;43.356;27.672;2022-07-23T13:23:58;98081.94;;;33.25;28.37
58373;BME280;44177;43.356;27.672;2022-07-23T13:26:25;98085.63;;;33.43;28.56
58373;BME280;44177;43.356;27.672;2022-07-23T13:28:51;98070.28;;;33.12;27.57
58373;BME280;44177;43.356;27.672;2022-07-23T13:31:17;98083.31;;;32.98;28.28
58373;BME280;44177;43.356;27.672;2022-07-23T13:33:42;98061.53;;;32.72;28.80
58373;BME280;44177;43.356;27.672;2022-07-23T13:36:08;98104.91;;;33.06;28.87
58373;BME280;44177;43.356;27.672;2022-07-23T13:38:34;98061.97;;;32.97;28.43
58373;BME280;44177;43.356;27.672;2022-07-23T13:41:00;98078.97;;;33.08;27.90
58373;BME280;44177;43.356;27.672;2022-07-23T13:43:26;98096.44;;;33.06;28.21
58373;BME280;44177;43.356;27.672;2022-07-23T13:45:52;98087.25;;;32.80;28.46